Albuquerque, New Mexico
Current Conditions -  °F | °C
As of 5:52 PM on Saturday 20 Dec 2014 (Local Time) from KABQ Reporting Station
Broken Clouds Broken Clouds  
Wind Chill: 40°   Ceiling: 25000
Heat Index: 40°   Visibility: 10mi
Dew Point: 26°   Wind: 0mph
Humidity: 58%   Direction: NA
Pressure: 30.1"   Gusts: NA
Location:  35.08°N, 106.64°W
Report Text: KABQ 210052Z 00000KT 10SM BKN250 04/M03 A3010 RMK AO2 SLP195 T00441033
Loading
Personal Weather Stations






























Interactive Weather Map New forecast layout! Learn more

10-Day Weather Forecast

Advertisements
Track Severe Weather on mobile